Time;durP1;ratioP1;P1;durP2;ratioP2;P2;SDS_P1;SDS_P2;PMS_P1;PMS_P2;Temp;Humidity;BMP_temperature;BMP_pressure;BME280_temperature;BME280_humidity;BME280_pressure;Samples;Min_cycle;Max_cycle;Signal;HPM_P1;HPM_P2
2023/10/17 00:00:38;;;;;;;0.00;0.00;;;9.30;85.70;;;;;;5037862;28;20044;-67
2023/10/17 00:03:05;;;;;;;0.00;0.00;;;9.30;85.70;;;;;;5036914;28;20052;-67
2023/10/17 00:05:31;;;;;;;0.00;0.00;;;9.20;85.60;;;;;;5038585;28;20033;-68
2023/10/17 00:07:58;;;;;;;0.00;0.00;;;9.20;85.60;;;;;;5038456;28;20405;-68
2023/10/17 00:10:26;;;;;;;0.28;0.28;;;9.20;85.70;;;;;;5037950;28;20053;-67
2023/10/17 00:12:52;;;;;;;0.00;0.00;;;9.20;85.70;;;;;;5038224;28;20076;-67
2023/10/17 00:15:27;;;;;;;0.00;0.00;;;9.20;85.60;;;;;;5037904;28;20056;-67
2023/10/17 00:20:40;;;;;;;0.17;0.17;;;9.10;85.60;;;;;;5036056;28;20036;-67
2023/10/17 00:23:06;;;;;;;0.00;0.00;;;9.10;85.60;;;;;;5038236;28;20040;-67
2023/10/17 00:25:33;;;;;;;0.28;0.28;;;9.10;85.60;;;;;;5038319;28;20044;-67
2023/10/17 00:27:58;;;;;;;0.10;0.10;;;9.10;85.60;;;;;;5037946;28;20455;-67
2023/10/17 00:30:29;;;;;;;0.20;0.20;;;9.10;85.70;;;;;;5036882;28;20053;-68
2023/10/17 00:32:55;;;;;;;0.13;0.13;;;9.10;85.90;;;;;;5037153;28;20113;-68
2023/10/17 00:35:25;;;;;;;0.00;0.00;;;9.10;86.00;;;;;;5036809;28;20053;-68
2023/10/17 00:37:57;;;;;;;0.00;0.00;;;9.10;86.00;;;;;;5037633;28;20056;-69
2023/10/17 00:40:45;;;;;;;;;;;9.00;86.00;;;;;;5037361;28;20493;-68
2023/10/17 00:43:14;;;;;;;0.00;0.00;;;9.00;86.00;;;;;;5037768;28;19983;-68
2023/10/17 00:45:46;;;;;;;0.00;0.00;;;9.10;86.00;;;;;;5035962;28;20064;-68
2023/10/17 00:48:20;;;;;;;0.00;0.00;;;9.10;86.00;;;;;;5036597;28;20048;-68
2023/10/17 00:50:48;;;;;;;0.03;0.03;;;9.10;86.20;;;;;;5038277;28;20053;-68
2023/10/17 00:53:15;;;;;;;0.00;0.00;;;9.00;86.20;;;;;;5035896;28;20123;-68
2023/10/17 00:55:50;;;;;;;0.03;0.03;;;9.00;86.20;;;;;;5037051;28;20489;-68
2023/10/17 00:58:18;;;;;;;0.00;0.00;;;9.10;86.20;;;;;;5036742;28;20080;-67
2023/10/17 01:00:49;;;;;;;0.00;0.00;;;9.10;86.10;;;;;;5035067;28;20037;-67
2023/10/17 01:03:16;;;;;;;0.00;0.00;;;9.10;86.00;;;;;;5036511;28;20037;-68
2023/10/17 01:08:44;;;;;;;0.00;0.00;;;9.10;85.90;;;;;;5036477;28;20637;-67
2023/10/17 01:11:20;;;;;;;0.00;0.00;;;9.10;85.90;;;;;;5037412;28;20041;-68
2023/10/17 01:13:53;;;;;;;0.00;0.00;;;9.10;85.80;;;;;;5036739;28;20033;-68
2023/10/17 01:16:24;;;;;;;0.00;0.00;;;9.10;85.70;;;;;;5036085;28;20069;-67
2023/10/17 01:18:50;;;;;;;0.00;0.00;;;9.10;85.60;;;;;;5036965;28;20119;-67
2023/10/17 01:21:20;;;;;;;0.00;0.00;;;9.00;85.50;;;;;;5037703;28;20378;-67
2023/10/17 01:23:47;;;;;;;1.08;1.00;;;8.90;85.50;;;;;;5036651;28;20067;-68
2023/10/17 01:26:20;;;;;;;0.00;0.00;;;8.90;85.50;;;;;;5036971;28;20055;-67
2023/10/17 01:28:48;;;;;;;0.00;0.00;;;8.90;85.60;;;;;;5037103;28;20052;-67
2023/10/17 01:31:14;;;;;;;0.00;0.00;;;8.90;85.70;;;;;;5035415;28;20053;-67
2023/10/17 01:33:43;;;;;;;0.00;0.00;;;8.90;85.60;;;;;;5034950;28;20116;-67
2023/10/17 01:36:16;;;;;;;0.00;0.00;;;8.90;85.70;;;;;;5037280;28;20268;-68
2023/10/17 01:38:42;;;;;;;0.00;0.00;;;8.90;85.70;;;;;;5036380;28;20063;-67
2023/10/17 01:41:10;;;;;;;0.00;0.00;;;8.90;85.60;;;;;;5035386;28;20555;-67
2023/10/17 01:43:45;;;;;;;0.00;0.00;;;8.90;85.50;;;;;;5036127;28;20037;-67
2023/10/17 01:46:15;;;;;;;0.00;0.00;;;8.90;85.50;;;;;;5036562;28;20486;-67
2023/10/17 01:48:46;;;;;;;0.00;0.00;;;8.90;85.50;;;;;;5036530;28;20509;-67
2023/10/17 01:51:13;;;;;;;0.22;0.20;;;8.90;85.50;;;;;;5036257;28;20037;-68
2023/10/17 01:53:39;;;;;;;0.08;0.08;;;8.90;85.40;;;;;;5035735;28;20072;-68
2023/10/17 01:56:14;;;;;;;0.03;0.03;;;8.90;85.30;;;;;;5035239;28;20509;-68
2023/10/17 01:58:48;;;;;;;0.10;0.10;;;8.80;85.30;;;;;;5035392;28;20053;-68
2023/10/17 02:01:16;;;;;;;0.00;0.00;;;8.80;85.30;;;;;;5035295;28;20088;-67
2023/10/17 02:03:42;;;;;;;0.00;0.00;;;8.80;85.30;;;;;;5037050;28;20044;-68
2023/10/17 02:06:14;;;;;;;0.00;0.00;;;8.80;85.20;;;;;;5036320;28;20512;-68
2023/10/17 02:08:42;;;;;;;0.00;0.00;;;8.70;85.10;;;;;;5035851;28;20807;-68
2023/10/17 02:11:12;;;;;;;0.00;0.00;;;8.70;85.10;;;;;;5036753;28;20128;-68
2023/10/17 02:13:40;;;;;;;0.00;0.00;;;8.70;85.10;;;;;;5035668;28;20401;-68
2023/10/17 02:16:06;;;;;;;0.00;0.00;;;8.70;85.20;;;;;;5034900;28;20046;-68
2023/10/17 02:18:32;;;;;;;0.00;0.00;;;8.70;85.20;;;;;;5037662;28;21177;-68
2023/10/17 02:21:04;;;;;;;0.00;0.00;;;8.70;85.20;;;;;;5035519;28;20037;-68
2023/10/17 02:23:34;;;;;;;;;;;8.60;85.10;;;;;;5036074;28;20049;-68
2023/10/17 02:26:03;;;;;;;0.00;0.00;;;8.60;85.10;;;;;;5036675;28;20273;-68
2023/10/17 02:28:29;;;;;;;0.00;0.00;;;8.60;85.00;;;;;;5036470;28;20124;-68
2023/10/17 02:30:58;;;;;;;0.00;0.00;;;8.60;85.00;;;;;;5037163;28;20785;-68
2023/10/17 02:33:28;;;;;;;0.00;0.00;;;8.50;85.00;;;;;;5036765;28;20731;-68
2023/10/17 02:36:07;;;;;;;0.00;0.00;;;8.40;85.00;;;;;;5033851;28;20080;-68
2023/10/17 02:38:33;;;;;;;0.15;0.15;;;8.30;84.90;;;;;;5036324;28;20037;-68
2023/10/17 02:40:59;;;;;;;0.00;0.00;;;8.30;85.00;;;;;;5034836;28;20056;-68
2023/10/17 02:43:24;;;;;;;0.00;0.00;;;8.30;85.00;;;;;;5034732;28;20047;-68
2023/10/17 02:45:50;;;;;;;0.00;0.00;;;8.20;84.90;;;;;;5035255;28;20846;-68
2023/10/17 02:48:25;;;;;;;0.10;0.10;;;8.20;85.00;;;;;;5035197;28;20053;-68
2023/10/17 02:51:02;;;;;;;0.00;0.00;;;8.20;85.00;;;;;;5036489;28;20769;-67
2023/10/17 02:53:34;;;;;;;0.00;0.00;;;8.10;85.00;;;;;;5035817;28;20049;-68
2023/10/17 02:56:18;;;;;;;0.00;0.00;;;8.10;85.00;;;;;;5035342;28;20055;-68
2023/10/17 02:58:59;;;;;;;0.00;0.00;;;8.00;85.00;;;;;;5035986;28;20060;-68
2023/10/17 03:01:27;;;;;;;0.00;0.00;;;8.00;85.20;;;;;;5034569;28;20124;-68
2023/10/17 03:03:53;;;;;;;0.00;0.00;;;8.00;85.20;;;;;;5034749;28;20813;-68
2023/10/17 03:06:18;;;;;;;0.00;0.00;;;8.00;85.20;;;;;;5034619;28;20041;-68
2023/10/17 03:09:01;;;;;;;0.00;0.00;;;8.00;85.20;;;;;;5034854;28;20120;-68
2023/10/17 03:11:36;;;;;;;0.00;0.00;;;7.90;85.10;;;;;;5034567;28;20048;-67
2023/10/17 03:14:12;;;;;;;0.00;0.00;;;7.90;85.10;;;;;;5034268;28;20037;-67
2023/10/17 03:16:42;;;;;;;0.00;0.00;;;7.90;85.10;;;;;;5034771;28;20049;-68
2023/10/17 03:19:11;;;;;;;0.00;0.00;;;7.90;85.10;;;;;;5035277;28;20049;-67
2023/10/17 03:21:39;;;;;;;0.00;0.00;;;7.90;85.20;;;;;;5035345;28;20040;-67
2023/10/17 03:24:05;;;;;;;0.00;0.00;;;7.90;85.20;;;;;;5035611;28;20045;-67
2023/10/17 03:26:42;;;;;;;0.00;0.00;;;7.90;85.20;;;;;;5034925;28;20044;-67
2023/10/17 03:29:20;;;;;;;0.00;0.00;;;7.80;85.20;;;;;;5034504;28;20120;-67
2023/10/17 03:31:48;;;;;;;0.00;0.00;;;7.80;85.20;;;;;;5033997;28;20124;-67
2023/10/17 03:34:19;;;;;;;0.05;0.05;;;7.80;85.30;;;;;;5035102;28;20057;-66
2023/10/17 03:36:49;;;;;;;0.00;0.00;;;7.70;85.30;;;;;;5033828;28;20061;-67
2023/10/17 03:39:26;;;;;;;0.00;0.00;;;7.70;85.20;;;;;;5035204;28;20090;-67
2023/10/17 03:41:58;;;;;;;0.00;0.00;;;7.70;85.10;;;;;;5034565;28;20042;-67
2023/10/17 03:44:30;;;;;;;0.00;0.00;;;7.70;85.10;;;;;;5035472;28;20132;-66
2023/10/17 03:46:59;;;;;;;0.00;0.00;;;7.70;85.10;;;;;;5034272;28;20058;-66
2023/10/17 03:49:36;;;;;;;0.00;0.00;;;7.60;85.00;;;;;;5034450;28;20056;-68
2023/10/17 03:52:06;;;;;;;0.08;0.08;;;7.60;85.00;;;;;;5035553;28;20442;-67
2023/10/17 03:54:38;;;;;;;0.00;0.00;;;7.60;85.00;;;;;;5034938;28;20716;-67
2023/10/17 03:57:15;;;;;;;0.00;0.00;;;7.60;85.00;;;;;;5038568;28;20063;-68
2023/10/17 03:59:41;;;;;;;0.00;0.00;;;7.60;85.00;;;;;;5037971;28;20120;-67
2023/10/17 04:02:12;;;;;;;0.00;0.00;;;7.60;85.20;;;;;;5038978;28;20805;-67
2023/10/17 04:04:49;;;;;;;0.00;0.00;;;7.60;85.20;;;;;;5038642;28;20041;-67
2023/10/17 04:07:16;;;;;;;0.00;0.00;;;7.50;85.20;;;;;;5039172;28;20041;-67
2023/10/17 04:10:01;;;;;;;0.00;0.00;;;7.60;85.30;;;;;;5037034;28;20045;-67
2023/10/17 04:12:48;;;;;;;0.08;0.08;;;7.60;85.50;;;;;;5038072;28;20041;-67
2023/10/17 04:15:15;;;;;;;0.10;0.10;;;7.60;85.60;;;;;;5038101;28;20037;-67
2023/10/17 04:17:41;;;;;;;0.00;0.00;;;7.70;85.80;;;;;;5038247;28;20026;-67
2023/10/17 04:20:13;;;;;;;0.00;0.00;;;7.80;85.90;;;;;;5037454;28;20079;-67
2023/10/17 04:22:39;;;;;;;;;;;7.80;85.80;;;;;;5038065;28;20056;-67
2023/10/17 04:25:19;;;;;;;0.00;0.00;;;7.90;85.70;;;;;;5038861;28;19936;-67
2023/10/17 04:27:59;;;;;;;0.00;0.00;;;7.90;85.70;;;;;;5038560;28;20037;-67
2023/10/17 04:30:46;;;;;;;0.00;0.00;;;7.90;85.70;;;;;;5036747;28;20061;-67
2023/10/17 04:33:19;;;;;;;0.00;0.00;;;7.90;85.80;;;;;;5035518;28;20397;-67
2023/10/17 04:35:53;;;;;;;0.00;0.00;;;7.80;85.70;;;;;;5036545;28;20041;-67
2023/10/17 04:38:19;;;;;;;0.00;0.00;;;7.80;85.60;;;;;;5037706;28;20577;-67
2023/10/17 04:43:54;;;;;;;0.00;0.00;;;7.80;85.50;;;;;;5037330;28;20077;-67
2023/10/17 04:46:34;;;;;;;0.00;0.00;;;7.80;85.40;;;;;;5037406;28;20160;-66
2023/10/17 04:49:17;;;;;;;0.00;0.00;;;7.70;85.40;;;;;;5036541;28;20509;-67
2023/10/17 04:51:43;;;;;;;0.00;0.00;;;7.70;85.40;;;;;;5038210;28;20430;-67
2023/10/17 04:54:39;;;;;;;0.00;0.00;;;7.70;85.40;;;;;;5035950;28;20046;-67
2023/10/17 04:57:18;;;;;;;0.00;0.00;;;7.70;85.40;;;;;;5036392;28;20045;-67
2023/10/17 05:07:30;;;;;;;0.00;0.00;;;7.80;85.50;;;;;;5036115;28;20111;-67
2023/10/17 06:18:38;;;;;;;0.00;0.00;;;7.70;85.20;;;;;;5035089;28;20045;-66
2023/10/17 06:21:07;;;;;;;0.00;0.00;;;7.70;85.30;;;;;;5033586;28;20538;-66
2023/10/17 06:34:18;;;;;;;0.00;0.00;;;7.90;86.90;;;;;;5033174;28;20498;-67
2023/10/17 06:36:50;;;;;;;0.00;0.00;;;7.90;86.60;;;;;;5034022;28;20056;-67
2023/10/17 06:39:18;;;;;;;0.00;0.00;;;7.80;86.40;;;;;;5036114;28;20053;-67
2023/10/17 06:41:45;;;;;;;0.00;0.00;;;7.70;86.20;;;;;;5035059;28;20037;-67
2023/10/17 06:44:16;;;;;;;0.00;0.00;;;7.70;86.10;;;;;;5034615;28;20060;-68
2023/10/17 06:46:48;;;;;;;0.00;0.00;;;7.70;86.00;;;;;;5034544;28;20139;-68
2023/10/17 06:54:50;;;;;;;0.00;0.00;;;7.70;86.10;;;;;;5032651;28;20102;-67
2023/10/17 06:57:19;;;;;;;0.00;0.00;;;7.80;86.00;;;;;;5015138;28;20045;-68
2023/10/17 06:59:52;;;;;;;0.00;0.00;;;7.80;86.00;;;;;;5035688;28;20045;-67
2023/10/17 07:02:28;;;;;;;0.00;0.00;;;7.80;85.90;;;;;;5035330;28;20068;-68
2023/10/17 07:04:55;;;;;;;0.00;0.00;;;7.80;85.80;;;;;;5034476;28;21305;-67
2023/10/17 07:07:23;;;;;;;0.00;0.00;;;7.90;85.70;;;;;;5034227;28;20389;-68
2023/10/17 07:10:07;;;;;;;0.00;0.00;;;7.80;85.60;;;;;;5034772;28;20555;-68
2023/10/17 07:12:38;;;;;;;0.00;0.00;;;7.80;85.60;;;;;;5035644;28;20436;-68
2023/10/17 07:15:12;;;;;;;0.00;0.00;;;7.80;85.70;;;;;;5035678;28;20140;-67
2023/10/17 07:17:48;;;;;;;0.00;0.00;;;7.90;85.70;;;;;;5033662;28;20040;-68
2023/10/17 07:20:17;;;;;;;0.00;0.00;;;8.00;85.80;;;;;;5034143;28;20048;-67
2023/10/17 07:22:53;;;;;;;0.00;0.00;;;8.00;85.70;;;;;;5034616;28;20048;-68
2023/10/17 07:25:19;;;;;;;0.10;0.10;;;8.00;85.80;;;;;;5033451;28;20053;-68
2023/10/17 07:27:46;;;;;;;0.00;0.00;;;8.10;85.80;;;;;;5031954;28;20060;-69
2023/10/17 07:30:13;;;;;;;0.00;0.00;;;8.10;85.80;;;;;;5034572;28;20065;-68
2023/10/17 07:32:45;;;;;;;0.00;0.00;;;8.10;85.80;;;;;;5038048;28;20045;-68
2023/10/17 07:35:11;;;;;;;;;;;8.20;85.80;;;;;;5040211;28;20183;-68
2023/10/17 07:37:48;;;;;;;0.00;0.00;;;8.20;85.70;;;;;;5037954;28;19929;-68
2023/10/17 07:42:42;;;;;;;0.00;0.00;;;8.30;85.80;;;;;;5037123;28;20386;-68
2023/10/17 07:45:14;;;;;;;0.00;0.00;;;8.30;85.80;;;;;;5039427;28;20041;-68
2023/10/17 07:47:41;;;;;;;0.00;0.00;;;8.40;85.80;;;;;;5038514;28;20102;-68
2023/10/17 07:50:12;;;;;;;0.00;0.00;;;8.30;85.80;;;;;;5036798;28;20056;-68
2023/10/17 07:52:42;;;;;;;0.00;0.00;;;8.40;85.80;;;;;;5038635;28;20061;-68
2023/10/17 07:55:18;;;;;;;0.00;0.00;;;8.50;85.90;;;;;;5036643;28;20036;-68
2023/10/17 07:57:46;;;;;;;0.00;0.00;;;8.50;85.80;;;;;;5038684;28;20756;-68
2023/10/17 08:00:26;;;;;;;0.00;0.00;;;8.50;85.90;;;;;;5037396;28;20413;-68
2023/10/17 08:03:00;;;;;;;0.00;0.00;;;8.60;85.90;;;;;;5037861;28;20089;-68
2023/10/17 08:05:27;;;;;;;0.00;0.00;;;8.60;85.90;;;;;;5036439;28;20095;-68
2023/10/17 08:08:04;;;;;;;0.00;0.00;;;8.60;85.80;;;;;;5036979;28;20773;-67
2023/10/17 08:10:32;;;;;;;0.00;0.00;;;8.60;85.80;;;;;;5037892;28;20111;-68
2023/10/17 08:12:58;;;;;;;0.00;0.00;;;8.60;85.70;;;;;;5038137;28;20781;-68
2023/10/17 08:15:30;;;;;;;0.00;0.00;;;8.70;85.80;;;;;;5036360;28;20050;-68
2023/10/17 08:17:59;;;;;;;0.00;0.00;;;8.70;85.70;;;;;;5036748;28;20046;-69
2023/10/17 08:23:09;;;;;;;0.00;0.00;;;8.80;85.90;;;;;;5030105;28;20136;-68
2023/10/17 08:25:59;;;;;;;0.00;0.00;;;8.90;85.90;;;;;;5037935;28;20056;-68
2023/10/17 08:31:17;;;;;;;0.00;0.00;;;8.90;86.00;;;;;;5037058;28;20057;-68
2023/10/17 08:33:47;;;;;;;0.57;0.57;;;8.90;85.90;;;;;;5037785;28;20056;-67
2023/10/17 08:36:13;;;;;;;0.00;0.00;;;9.00;86.00;;;;;;5051834;28;20420;-68
2023/10/17 08:38:40;;;;;;;2.20;1.70;;;9.10;86.20;;;;;;5037364;28;20050;-68
2023/10/17 08:41:08;;;;;;;0.00;0.00;;;9.10;86.30;;;;;;5037947;28;20049;-68
2023/10/17 08:43:36;;;;;;;0.00;0.00;;;9.10;86.50;;;;;;5036895;28;20448;-68
2023/10/17 08:46:06;;;;;;;0.00;0.00;;;9.20;86.50;;;;;;5037643;28;20132;-68
2023/10/17 08:48:34;;;;;;;0.30;0.30;;;9.20;86.60;;;;;;5037120;28;20447;-69
2023/10/17 08:51:00;;;;;;;0.00;0.00;;;9.30;86.50;;;;;;5054623;28;20299;-68
2023/10/17 08:53:28;;;;;;;0.00;0.00;;;9.40;86.30;;;;;;5050358;28;20041;-68
2023/10/17 08:55:53;;;;;;;0.00;0.00;;;9.40;86.00;;;;;;5061507;28;20045;-68
2023/10/17 08:58:32;;;;;;;0.00;0.00;;;9.50;85.80;;;;;;5050102;28;20048;-68
2023/10/17 09:01:07;;;;;;;0.00;0.00;;;9.50;85.60;;;;;;5050147;28;20458;-68
2023/10/17 09:03:37;;;;;;;0.00;0.00;;;9.50;85.10;;;;;;5047723;28;20053;-68
2023/10/17 09:11:29;;;;;;;0.00;0.00;;;9.70;84.40;;;;;;5050161;28;20110;-68
2023/10/17 09:14:17;;;;;;;0.00;0.00;;;9.80;84.50;;;;;;5049247;28;20055;-68
2023/10/17 09:19:53;;;;;;;0.00;0.00;;;10.00;84.30;;;;;;5037802;28;20103;-68
2023/10/17 09:22:40;;;;;;;0.00;0.00;;;10.00;83.60;;;;;;5037308;28;20034;-68
2023/10/17 09:25:19;;;;;;;0.00;0.00;;;10.00;82.90;;;;;;5039165;28;20041;-68
2023/10/17 09:27:52;;;;;;;0.00;0.00;;;10.10;83.10;;;;;;5035320;28;20045;-68
2023/10/17 09:30:19;;;;;;;0.00;0.00;;;10.20;83.00;;;;;;5035825;28;20060;-68
2023/10/17 09:32:44;;;;;;;0.00;0.00;;;10.20;83.00;;;;;;5038788;28;20053;-69
2023/10/17 09:35:15;;;;;;;0.00;0.00;;;10.30;82.50;;;;;;5036148;28;20049;-68
2023/10/17 09:37:43;;;;;;;0.00;0.00;;;10.30;82.10;;;;;;5019397;28;20041;-68
2023/10/17 09:40:12;;;;;;;0.00;0.00;;;10.40;81.60;;;;;;5038790;28;20049;-68
2023/10/17 09:42:47;;;;;;;0.00;0.00;;;10.40;81.00;;;;;;5038129;28;20044;-68
2023/10/17 09:45:15;;;;;;;0.00;0.00;;;10.50;80.50;;;;;;5035742;28;20518;-69
2023/10/17 09:47:44;;;;;;;0.00;0.00;;;10.60;80.50;;;;;;5041406;28;20048;-68
2023/10/17 09:50:16;;;;;;;0.00;0.00;;;10.60;79.20;;;;;;5037565;28;20680;-69
2023/10/17 09:52:45;;;;;;;0.00;0.00;;;10.60;79.60;;;;;;5019541;28;20049;-68
2023/10/17 09:55:13;;;;;;;0.00;0.00;;;10.70;79.90;;;;;;5035955;28;20047;-69
2023/10/17 09:57:43;;;;;;;0.00;0.00;;;10.80;79.90;;;;;;5039454;28;20402;-68
2023/10/17 10:00:27;;;;;;;0.00;0.00;;;10.90;79.70;;;;;;5037094;28;20044;-69
2023/10/17 10:02:54;;;;;;;0.10;0.10;;;10.90;79.10;;;;;;5040914;28;20122;-69
2023/10/17 10:05:24;;;;;;;0.00;0.00;;;10.90;77.90;;;;;;5037795;28;20160;-68
2023/10/17 10:07:53;;;;;;;0.10;0.10;;;10.90;77.30;;;;;;5037883;28;20073;-69
2023/10/17 10:10:53;;;;;;;0.00;0.00;;;10.90;77.10;;;;;;5035966;28;20045;-69
2023/10/17 10:13:20;;;;;;;0.00;0.00;;;10.90;76.60;;;;;;5038180;28;20446;-69
2023/10/17 10:15:50;;;;;;;0.00;0.00;;;11.00;76.70;;;;;;5038301;28;20485;-69
2023/10/17 10:18:16;;;;;;;0.00;0.00;;;11.00;76.90;;;;;;5036501;28;21183;-69
2023/10/17 10:20:55;;;;;;;0.52;0.52;;;11.10;75.80;;;;;;5036566;28;20460;-69
2023/10/17 10:23:34;;;;;;;0.00;0.00;;;11.20;77.00;;;;;;5020055;28;20133;-68
2023/10/17 10:26:11;;;;;;;0.00;0.00;;;11.20;76.30;;;;;;5036222;28;20072;-68
2023/10/17 10:28:41;;;;;;;0.00;0.00;;;11.20;76.70;;;;;;5038172;28;20418;-68
2023/10/17 10:31:22;;;;;;;1.80;0.50;;;11.30;76.70;;;;;;5036232;28;20850;-68
2023/10/17 10:34:00;;;;;;;0.00;0.00;;;11.30;76.30;;;;;;5036092;28;20083;-68
2023/10/17 10:36:29;;;;;;;0.00;0.00;;;11.40;77.30;;;;;;5038030;28;20084;-68
2023/10/17 10:39:06;;;;;;;0.00;0.00;;;11.40;77.50;;;;;;5036510;28;20041;-69
2023/10/17 10:41:32;;;;;;;0.00;0.00;;;11.40;75.90;;;;;;5037015;28;20045;-68
2023/10/17 10:43:58;;;;;;;0.00;0.00;;;11.40;75.00;;;;;;5036480;28;20047;-68
2023/10/17 10:46:24;;;;;;;0.00;0.00;;;11.50;76.40;;;;;;5036446;28;20045;-69
2023/10/17 10:48:56;;;;;;;0.00;0.00;;;11.50;76.40;;;;;;5037497;28;20033;-68
2023/10/17 10:51:24;;;;;;;;;;;11.60;76.10;;;;;;5016170;28;20043;-66
2023/10/17 10:53:56;;;;;;;0.00;0.00;;;11.60;76.60;;;;;;5037751;28;20410;-67
2023/10/17 10:56:27;;;;;;;;;;;11.70;75.70;;;;;;5036950;28;20120;-66
2023/10/17 10:58:57;;;;;;;0.00;0.00;;;11.70;75.80;;;;;;5037198;28;19928;-67
2023/10/17 11:01:25;;;;;;;0.00;0.00;;;11.70;75.00;;;;;;5037083;28;20036;-65
2023/10/17 11:03:52;;;;;;;0.00;0.00;;;11.70;74.90;;;;;;5037189;28;20034;-66
2023/10/17 11:06:25;;;;;;;0.00;0.00;;;11.70;74.50;;;;;;5034011;28;20037;-66
2023/10/17 11:08:53;;;;;;;0.00;0.00;;;11.80;74.10;;;;;;5035685;28;20051;-66
2023/10/17 11:11:19;;;;;;;0.00;0.00;;;11.90;74.60;;;;;;5037197;28;20072;-66
2023/10/17 11:13:49;;;;;;;0.00;0.00;;;11.90;74.10;;;;;;5018418;28;20460;-66
2023/10/17 11:16:21;;;;;;;0.00;0.00;;;12.00;73.50;;;;;;5037021;28;20042;-67
2023/10/17 11:18:48;;;;;;;0.20;0.20;;;12.10;74.30;;;;;;5020423;28;20132;-66
2023/10/17 11:21:17;;;;;;;0.00;0.00;;;12.10;74.40;;;;;;5034533;28;20430;-66
2023/10/17 11:23:47;;;;;;;0.00;0.00;;;12.10;73.40;;;;;;5036462;28;20072;-66
2023/10/17 11:26:14;;;;;;;0.00;0.00;;;12.10;74.60;;;;;;5036146;28;20037;-66
2023/10/17 11:28:42;;;;;;;0.00;0.00;;;12.10;74.90;;;;;;5036450;28;20068;-66
2023/10/17 11:31:21;;;;;;;0.00;0.00;;;12.20;74.30;;;;;;5036321;28;20528;-66
2023/10/17 11:33:59;;;;;;;0.00;0.00;;;12.20;73.10;;;;;;5036697;28;20587;-67
2023/10/17 11:36:35;;;;;;;0.00;0.00;;;12.20;74.20;;;;;;5018856;28;20052;-66
2023/10/17 11:39:04;;;;;;;0.00;0.00;;;12.30;73.00;;;;;;5036298;28;20041;-67
2023/10/17 11:41:31;;;;;;;0.00;0.00;;;12.30;73.30;;;;;;5035925;28;20049;-67
2023/10/17 11:44:04;;;;;;;0.00;0.00;;;12.30;72.90;;;;;;5035947;28;20076;-66
2023/10/17 11:46:31;;;;;;;0.00;0.00;;;12.30;72.70;;;;;;5036141;28;20500;-66
2023/10/17 11:49:21;;;;;;;0.00;0.00;;;12.40;71.60;;;;;;5036589;28;20132;-65
2023/10/17 11:52:15;;;;;;;0.00;0.00;;;12.40;73.30;;;;;;5035520;28;20731;-65
2023/10/17 11:55:00;;;;;;;0.00;0.00;;;12.50;72.10;;;;;;5040090;28;20180;-67
2023/10/17 11:57:28;;;;;;;0.00;0.00;;;12.50;72.80;;;;;;5043956;28;20596;-67
2023/10/17 11:59:57;;;;;;;0.00;0.00;;;12.60;72.90;;;;;;5045564;28;20493;-67
2023/10/17 12:02:24;;;;;;;0.00;0.00;;;12.60;71.20;;;;;;5045758;28;20499;-67
2023/10/17 12:04:49;;;;;;;0.00;0.00;;;12.60;70.40;;;;;;5048556;28;20045;-67
2023/10/17 12:07:15;;;;;;;0.10;0.10;;;12.60;72.00;;;;;;5047361;28;20098;-67
2023/10/17 12:09:41;;;;;;;0.20;0.20;;;12.70;71.50;;;;;;5048562;28;20060;-68
2023/10/17 12:12:06;;;;;;;0.00;0.00;;;12.60;70.50;;;;;;5048164;28;20049;-71
2023/10/17 12:14:35;;;;;;;0.00;0.00;;;12.80;71.30;;;;;;5042679;28;20501;-67
2023/10/17 12:17:00;;;;;;;0.00;0.00;;;12.80;71.80;;;;;;5049071;28;20045;-68
2023/10/17 12:19:27;;;;;;;0.00;0.00;;;12.80;70.60;;;;;;5041458;28;20041;-66
2023/10/17 12:21:53;;;;;;;0.00;0.00;;;12.70;68.20;;;;;;5036962;28;20071;-68
2023/10/17 12:24:24;;;;;;;0.00;0.00;;;12.90;70.90;;;;;;5051409;28;20041;-66
2023/10/17 12:26:50;;;;;;;0.00;0.00;;;13.00;72.50;;;;;;5051028;28;20059;-66
2023/10/17 12:29:17;;;;;;;0.00;0.00;;;13.10;72.60;;;;;;5050943;28;20077;-67
2023/10/17 12:31:43;;;;;;;0.00;0.00;;;13.10;72.70;;;;;;5050864;28;20417;-66
2023/10/17 12:34:08;;;;;;;0.00;0.00;;;13.10;71.80;;;;;;5041558;28;20053;-67
2023/10/17 12:36:37;;;;;;;0.00;0.00;;;13.20;72.70;;;;;;5029187;28;20041;-66
2023/10/17 12:39:06;;;;;;;0.00;0.00;;;13.20;72.70;;;;;;5029600;28;20069;-66
2023/10/17 12:41:35;;;;;;;0.00;0.00;;;13.20;68.50;;;;;;5030206;28;20053;-66
2023/10/17 12:44:00;;;;;;;0.00;0.00;;;13.20;70.10;;;;;;5030095;28;20050;-66
2023/10/17 12:46:26;;;;;;;0.00;0.00;;;13.10;68.30;;;;;;5029373;28;20424;-66
2023/10/17 12:48:53;;;;;;;0.00;0.00;;;13.20;69.60;;;;;;5029967;28;20069;-66
2023/10/17 12:51:20;;;;;;;0.03;0.03;;;13.20;69.60;;;;;;5030095;28;20072;-66
2023/10/17 12:53:46;;;;;;;0.00;0.00;;;13.30;70.50;;;;;;5044919;28;20127;-66
2023/10/17 12:56:12;;;;;;;0.00;0.00;;;13.20;70.10;;;;;;5042139;28;20044;-67
2023/10/17 12:58:38;;;;;;;0.00;0.00;;;13.30;70.40;;;;;;5048685;28;20118;-66
2023/10/17 13:01:04;;;;;;;0.00;0.00;;;13.30;69.40;;;;;;5038896;28;20623;-67
2023/10/17 13:03:33;;;;;;;0.00;0.00;;;13.30;70.20;;;;;;5050582;28;20512;-66
2023/10/17 13:06:00;;;;;;;0.00;0.00;;;13.40;69.40;;;;;;5048114;28;20124;-66
2023/10/17 13:08:26;;;;;;;0.00;0.00;;;13.40;69.50;;;;;;5048960;28;20195;-66
2023/10/17 13:10:54;;;;;;;0.30;0.30;;;13.40;69.30;;;;;;5037426;28;20102;-66
2023/10/17 13:13:19;;;;;;;0.00;0.00;;;13.40;69.80;;;;;;5050675;28;20460;-67
2023/10/17 13:15:45;;;;;;;0.00;0.00;;;13.40;68.90;;;;;;5029414;28;20041;-67
2023/10/17 13:18:14;;;;;;;0.08;0.08;;;13.50;69.80;;;;;;5031651;28;20049;-66
2023/10/17 13:20:46;;;;;;;0.00;0.00;;;13.50;71.20;;;;;;5048974;28;20041;-67
2023/10/17 13:23:12;;;;;;;0.00;0.00;;;13.50;70.30;;;;;;5048604;28;20490;-67
2023/10/17 13:25:40;;;;;;;0.00;0.00;;;13.50;70.90;;;;;;5050257;28;20074;-66
2023/10/17 13:28:06;;;;;;;0.00;0.00;;;13.50;69.50;;;;;;5049776;28;20061;-66
2023/10/17 13:30:32;;;;;;;0.00;0.00;;;13.50;67.90;;;;;;5041599;28;20057;-67
2023/10/17 13:32:58;;;;;;;0.00;0.00;;;13.60;68.50;;;;;;5050376;28;21119;-66
2023/10/17 13:35:24;;;;;;;0.00;0.00;;;13.50;66.70;;;;;;5050202;28;20041;-69
2023/10/17 13:37:54;;;;;;;0.00;0.00;;;13.60;68.30;;;;;;5047284;28;20076;-68
2023/10/17 13:40:22;;;;;;;0.00;0.00;;;13.60;68.00;;;;;;5043519;28;20493;-69
2023/10/17 13:42:50;;;;;;;0.00;0.00;;;13.60;68.70;;;;;;5041344;28;20049;-69
2023/10/17 13:45:16;;;;;;;0.00;0.00;;;13.60;67.50;;;;;;5049829;28;20049;-69
2023/10/17 13:47:42;;;;;;;0.00;0.00;;;13.70;68.50;;;;;;5049634;28;20142;-69
2023/10/17 13:50:13;;;;;;;0.00;0.00;;;13.70;68.40;;;;;;5050222;28;20084;-69
2023/10/17 13:52:41;;;;;;;0.00;0.00;;;13.80;69.50;;;;;;5048308;28;20061;-69
2023/10/17 13:55:14;;;;;;;0.00;0.00;;;13.80;69.00;;;;;;5050089;28;20045;-67
2023/10/17 13:57:42;;;;;;;0.00;0.00;;;13.70;67.80;;;;;;5049342;28;20053;-66
2023/10/17 14:00:18;;;;;;;0.00;0.00;;;13.60;66.30;;;;;;5049715;28;20378;-66
2023/10/17 14:02:44;;;;;;;0.00;0.00;;;13.70;66.40;;;;;;5042413;28;20085;-66
2023/10/17 14:05:12;;;;;;;0.00;0.00;;;13.70;65.30;;;;;;5029965;28;20069;-67
2023/10/17 14:07:38;;;;;;;0.00;0.00;;;14.00;72.80;;;;;;5029883;28;20057;-66
2023/10/17 14:10:09;;;;;;;0.00;0.00;;;14.10;70.10;;;;;;5029910;28;20049;-66
2023/10/17 14:12:39;;;;;;;0.00;0.00;;;14.00;68.20;;;;;;5027705;28;20053;-66
2023/10/17 14:15:09;;;;;;;0.00;0.00;;;13.90;66.70;;;;;;5029833;28;20116;-66
2023/10/17 14:17:35;;;;;;;0.00;0.00;;;13.80;67.20;;;;;;5029831;28;20434;-66
2023/10/17 14:20:15;;;;;;;0.00;0.00;;;13.80;68.20;;;;;;5032951;28;20051;-68
2023/10/17 14:28:09;;;;;;;0.00;0.00;;;14.00;69.40;;;;;;5048976;28;20048;-67
2023/10/17 14:30:39;;;;;;;0.00;0.00;;;13.90;66.40;;;;;;5048522;28;20053;-67
2023/10/17 14:33:08;;;;;;;0.00;0.00;;;13.90;66.30;;;;;;5033967;28;20093;-67
2023/10/17 14:35:34;;;;;;;0.00;0.00;;;14.00;67.50;;;;;;5028617;28;20049;-68
2023/10/17 14:38:00;;;;;;;0.00;0.00;;;13.90;66.10;;;;;;5031196;28;20057;-67
2023/10/17 14:40:29;;;;;;;0.00;0.00;;;14.10;71.50;;;;;;5047292;28;20056;-67
2023/10/17 14:42:55;;;;;;;0.47;0.40;;;14.10;68.80;;;;;;5037644;28;20049;-70
2023/10/17 14:45:24;;;;;;;0.63;0.63;;;14.50;76.30;;;;;;5043798;28;20045;-67
2023/10/17 14:47:50;;;;;;;0.00;0.00;;;14.80;75.30;;;;;;5046799;28;20611;-67
2023/10/17 14:50:15;;;;;;;0.00;0.00;;;14.80;68.10;;;;;;5048514;28;20128;-67
2023/10/17 14:52:41;;;;;;;0.00;0.00;;;14.60;65.60;;;;;;5048776;28;20779;-67
2023/10/17 14:55:14;;;;;;;0.00;0.00;;;14.60;68.30;;;;;;5047398;28;20069;-67
2023/10/17 14:57:45;;;;;;;0.00;0.00;;;14.60;67.70;;;;;;5048639;28;20091;-67
2023/10/17 15:00:12;;;;;;;0.00;0.00;;;14.60;68.10;;;;;;5048654;28;20106;-67
2023/10/17 15:02:39;;;;;;;0.00;0.00;;;14.60;67.80;;;;;;5048176;28;20041;-67
2023/10/17 15:05:07;;;;;;;0.00;0.00;;;14.60;65.90;;;;;;5047721;28;20083;-67
2023/10/17 15:07:34;;;;;;;0.00;0.00;;;14.60;69.60;;;;;;5048641;28;20048;-68
2023/10/17 15:10:00;;;;;;;0.00;0.00;;;14.60;67.90;;;;;;5048268;28;20124;-68
2023/10/17 15:12:26;;;;;;;0.00;0.00;;;14.60;66.40;;;;;;5038861;28;20041;-68